Time;durP1;ratioP1;P1;durP2;ratioP2;P2;SDS_P1;SDS_P2;PMS_P1;PMS_P2;Temp;Humidity;BMP_temperature;BMP_pressure;BME280_temperature;BME280_humidity;BME280_pressure;Samples;Min_cycle;Max_cycle;Signal;HPM_P1;HPM_P2
2024/01/14 00:02:04;;;;;;;;;;;7.30;58.30;;;5.66;61.66;100229.53;12248651;19;19914;-88
2024/01/14 00:06:05;;;;;;;;;;;7.30;58.30;;;5.57;61.53;100211.00;12245778;19;19926;-87
2024/01/14 00:10:07;;;;;;;;;;;7.30;58.30;;;5.47;61.65;100195.81;12248015;19;19919;-88
2024/01/14 00:14:08;;;;;;;;;;;7.30;58.40;;;5.65;61.71;100216.69;12244675;19;19914;-87
2024/01/14 00:18:11;;;;;;;;;;;7.60;58.40;;;5.69;61.77;100226.81;12244176;19;19989;-87
2024/01/14 00:22:12;;;;;;;;;;;7.30;58.40;;;5.66;61.79;100215.75;12247672;19;19986;-88
2024/01/14 00:26:14;;;;;;;;;;;7.30;58.40;;;5.59;61.61;100185.84;12246135;19;20265;-87
2024/01/14 00:30:15;;;;;;;;;;;7.30;58.40;;;5.62;61.69;100196.09;12246959;19;19914;-87
2024/01/14 00:34:17;;;;;;;;;;;7.30;58.40;;;5.58;61.67;100182.41;12250639;19;19923;-87
2024/01/14 00:38:19;;;;;;;;;;;7.30;58.30;;;5.67;61.77;100192.41;12255030;19;19935;-87
2024/01/14 00:42:21;;;;;;;;;;;7.30;58.40;;;5.66;61.64;100172.56;12257494;19;20340;-87
2024/01/14 00:46:23;;;;;;;;;;;7.30;58.40;;;5.52;61.61;100138.66;12254896;19;19923;-87
2024/01/14 00:50:25;;;;;;;;;;;7.40;58.50;;;5.71;61.62;100177.56;12257744;19;19918;-87
2024/01/14 00:54:26;;;;;;;;;;;7.30;58.50;;;5.60;61.64;100149.53;12250736;19;19929;-87
2024/01/14 00:58:28;;;;;;;;;;;7.50;58.50;;;5.79;61.84;100174.63;12251884;19;20334;-87
2024/01/14 01:02:29;;;;;;;;;;;7.30;58.50;;;5.81;61.64;100172.81;12257426;19;19990;-87
2024/01/14 01:06:31;;;;;;;;;;;7.40;58.50;;;5.65;61.63;100142.41;12255424;19;20260;-87
2024/01/14 01:10:32;;;;;;;;;;;7.30;58.50;;;5.81;61.61;100168.47;12255016;19;20255;-87
2024/01/14 01:14:33;;;;;;;;;;;7.40;58.50;;;5.58;61.66;100115.09;12256056;19;19910;-87
2024/01/14 01:18:35;;;;;;;;;;;7.40;58.50;;;5.79;61.78;100151.31;12248687;19;20338;-87
2024/01/14 01:22:37;;;;;;;;;;;7.40;58.40;;;5.73;61.81;100139.47;12252557;19;19948;-87
2024/01/14 01:26:38;;;;;;;;;;;7.40;58.40;;;5.81;61.81;100146.91;12252927;19;19921;-87
2024/01/14 01:30:40;;;;;;;;;;;7.40;58.50;;;5.67;61.66;100122.47;12255664;19;19914;-87
2024/01/14 01:34:43;;;;;;;;;;;7.40;58.50;;;5.83;61.81;100147.66;12254477;19;19922;-87
2024/01/14 01:38:45;;;;;;;;;;;7.40;58.60;;;5.69;61.60;100127.56;12251228;19;19921;-87
2024/01/14 01:42:46;;;;;;;;;;;7.40;58.40;;;5.57;61.85;100113.41;12255204;19;19918;-87
2024/01/14 01:46:49;;;;;;;;;;;7.40;58.40;;;5.50;61.75;100091.28;12251937;19;19991;-87
2024/01/14 01:50:54;;;;;;;;;;;7.40;58.40;;;5.70;61.78;100121.47;12252985;19;19919;-87
2024/01/14 01:54:56;;;;;;;;;;;7.40;58.30;;;5.57;61.75;100097.03;12252660;19;19919;-87
2024/01/14 01:58:58;;;;;;;;;;;7.40;58.30;;;5.69;61.58;100112.84;12248271;19;19978;-87
2024/01/14 02:03:01;;;;;;;;;;;7.60;58.40;;;5.51;61.88;100077.44;12252459;19;19971;-87
2024/01/14 02:07:03;;;;;;;;;;;7.30;58.30;;;5.59;61.78;100093.47;12249605;19;19907;-87
2024/01/14 02:11:05;;;;;;;;;;;7.30;58.20;;;5.55;61.92;100068.59;12252431;19;19919;-87
2024/01/14 02:15:07;;;;;;;;;;;7.30;58.20;;;5.57;61.68;100071.97;12252715;19;19944;-87
2024/01/14 02:19:08;;;;;;;;;;;7.20;58.10;;;5.55;61.72;100074.63;12253882;19;19927;-87
2024/01/14 02:23:12;;;;;;;;;;;7.20;58.20;;;5.55;61.87;100073.78;12253213;19;19911;-87
2024/01/14 02:27:14;;;;;;;;;;;7.40;58.30;;;5.45;61.64;100070.75;12251067;19;20272;-87
2024/01/14 02:31:16;;;;;;;;;;;7.30;58.30;;;5.57;61.91;100102.22;12250516;19;19918;-87
2024/01/14 02:35:18;;;;;;;;;;;7.10;58.30;;;5.57;61.68;100092.69;12251205;19;19983;-87
2024/01/14 02:39:19;;;;;;;;;;;7.10;58.40;;;5.50;61.76;100092.13;12251550;19;20011;-87
2024/01/14 02:43:21;;;;;;;;;;;7.10;58.40;;;5.56;61.66;100091.00;12249636;19;19942;-87
2024/01/14 02:47:22;;;;;;;;;;;7.10;58.40;;;5.38;61.80;100061.59;12247948;19;19937;-86
2024/01/14 02:51:24;;;;;;;;;;;7.10;58.40;;;5.51;61.88;100091.22;12249605;19;19915;-87
2024/01/14 02:55:25;;;;;;;;;;;7.10;58.40;;;5.29;61.66;100056.81;12245191;19;19927;-87
2024/01/14 02:59:26;;;;;;;;;;;7.10;58.40;;;5.46;61.88;100072.47;12251506;19;19935;-87
2024/01/14 03:03:28;;;;;;;;;;;7.10;58.40;;;5.43;61.88;100069.19;12249333;19;20249;-88
2024/01/14 03:07:30;;;;;;;;;;;7.30;58.40;;;5.51;61.82;100073.09;12249343;19;19993;-87
2024/01/14 03:11:33;;;;;;;;;;;7.10;58.40;;;5.48;61.88;100068.06;12250243;19;19924;-87
2024/01/14 03:15:34;;;;;;;;;;;7.30;58.50;;;5.54;61.67;100056.59;12247506;19;19918;-87
2024/01/14 03:19:36;;;;;;;;;;;7.10;58.40;;;5.52;61.66;100058.38;12247901;19;19930;-87
2024/01/14 03:23:37;;;;;;;;;;;7.30;58.40;;;5.51;61.76;100056.72;12248990;19;19931;-87
2024/01/14 03:27:39;;;;;;;;;;;7.10;58.40;;;5.33;61.72;100027.31;12246719;19;19986;-88
2024/01/14 03:31:40;;;;;;;;;;;7.10;58.30;;;5.25;61.71;100012.13;12246116;19;19935;-87
2024/01/14 03:35:42;;;;;;;;;;;7.00;58.40;;;5.17;61.92;100003.84;12247416;19;19923;-87
2024/01/14 03:39:43;;;;;;;;;;;7.10;58.40;;;5.38;61.93;100048.66;12247939;19;20334;-87
2024/01/14 03:43:44;;;;;;;;;;;7.10;58.40;;;5.39;61.67;100044.31;12248463;19;19919;-87
2024/01/14 03:47:46;;;;;;;;;;;7.10;58.30;;;5.21;61.92;100015.75;12243762;19;19927;-87
2024/01/14 03:51:47;;;;;;;;;;;7.10;58.30;;;5.46;61.91;100048.31;12244870;19;19930;-87
2024/01/14 03:55:48;;;;;;;;;;;7.00;58.30;;;5.45;61.92;100044.03;12246341;19;19918;-88
2024/01/14 03:59:50;;;;;;;;;;;7.00;58.20;;;5.33;61.73;100016.97;12246194;19;19911;-87
2024/01/14 04:03:51;;;;;;;;;;;7.00;58.30;;;5.40;61.94;100027.88;12248843;19;19929;-87
2024/01/14 04:07:53;;;;;;;;;;;7.10;58.20;;;5.17;61.74;99997.84;12242702;19;19918;-87
2024/01/14 04:11:54;;;;;;;;;;;7.00;58.20;;;5.39;61.77;100027.03;12245251;19;19921;-87
2024/01/14 04:15:56;;;;;;;;;;;7.00;58.20;;;5.16;61.77;100003.91;12244448;19;19930;-87
2024/01/14 04:19:58;;;;;;;;;;;7.20;58.20;;;5.26;61.69;100021.56;12246181;19;19921;-87
2024/01/14 04:24:02;;;;;;;;;;;7.00;58.10;;;5.17;61.75;100027.16;12246090;19;19910;-87
2024/01/14 04:28:03;;;;;;;;;;;7.00;58.10;;;5.10;61.91;100010.19;12243671;19;19926;-87
2024/01/14 04:32:05;;;;;;;;;;;6.90;58.10;;;5.27;61.98;100043.13;12243980;19;20315;-87
2024/01/14 04:36:07;;;;;;;;;;;6.90;58.00;;;5.28;61.82;100050.81;12243376;19;19921;-87
2024/01/14 04:40:09;;;;;;;;;;;6.90;58.00;;;5.16;61.76;100035.84;12245684;19;19932;-87
2024/01/14 04:44:10;;;;;;;;;;;6.90;58.20;;;5.23;61.91;100047.56;12244464;19;20334;-87
2024/01/14 04:48:12;;;;;;;;;;;7.00;58.20;;;5.24;61.88;100062.22;12241156;19;19919;-87
2024/01/14 04:52:13;;;;;;;;;;;6.90;58.20;;;5.27;61.99;100056.06;12243348;19;19911;-87
2024/01/14 04:56:15;;;;;;;;;;;6.90;58.10;;;5.11;61.99;100040.38;12241966;19;20000;-87
2024/01/14 05:00:16;;;;;;;;;;;6.80;58.10;;;5.29;61.78;100069.75;12242399;19;19974;-87
2024/01/14 05:04:18;;;;;;;;;;;6.90;58.10;;;5.18;62.11;100028.81;12244915;19;19996;-87
2024/01/14 05:08:19;;;;;;;;;;;6.90;58.20;;;5.29;61.79;100046.47;12240858;19;19932;-87
2024/01/14 05:12:21;;;;;;;;;;;6.90;58.20;;;5.30;61.78;100049.00;12243930;19;20238;-87
2024/01/14 05:16:22;;;;;;;;;;;6.90;58.20;;;5.32;61.87;100049.78;12241631;19;19923;-87
2024/01/14 05:20:24;;;;;;;;;;;6.90;58.10;;;5.36;61.82;100050.47;12251879;19;19936;-87
2024/01/14 05:24:25;;;;;;;;;;;6.90;58.10;;;5.18;61.92;100026.22;12256096;19;19972;-87
2024/01/14 05:28:27;;;;;;;;;;;6.90;58.10;;;5.32;61.80;100047.19;12252545;19;19939;-87
2024/01/14 05:32:28;;;;;;;;;;;7.20;58.20;;;5.40;61.85;100058.94;12252578;19;20038;-87
2024/01/14 05:36:30;;;;;;;;;;;7.00;58.10;;;5.18;61.90;100018.47;12255382;19;19915;-87
2024/01/14 05:40:32;;;;;;;;;;;7.00;58.10;;;5.12;61.88;100002.38;12254153;19;19948;-87
2024/01/14 05:44:34;;;;;;;;;;;7.00;58.10;;;5.28;61.95;100027.50;12255851;19;19907;-87
2024/01/14 05:48:36;;;;;;;;;;;7.00;58.10;;;5.08;61.88;99991.34;12251935;19;20269;-87
2024/01/14 05:52:37;;;;;;;;;;;7.00;58.10;;;5.38;62.00;100053.84;12251024;19;19954;-87
2024/01/14 05:56:39;;;;;;;;;;;7.00;58.10;;;5.30;61.77;100032.63;12253074;19;20334;-87
2024/01/14 06:00:40;;;;;;;;;;;7.00;58.10;;;5.29;61.89;100042.16;12254953;19;19930;-87
2024/01/14 06:04:42;;;;;;;;;;;7.00;58.10;;;5.18;61.93;100023.63;12251184;19;19974;-87
2024/01/14 06:08:44;;;;;;;;;;;7.00;58.10;;;5.30;61.78;100032.63;12249882;19;19915;-87
2024/01/14 06:12:45;;;;;;;;;;;7.00;58.00;;;5.30;61.73;100033.47;12252833;19;19919;-87
2024/01/14 06:16:47;;;;;;;;;;;7.00;58.00;;;5.27;61.93;100041.38;12249503;19;19915;-89
2024/01/14 06:20:48;;;;;;;;;;;7.10;58.10;;;5.26;61.92;100031.91;12247437;19;19930;-88
2024/01/14 06:24:50;;;;;;;;;;;7.20;58.10;;;5.24;61.89;100020.81;12248181;19;19921;-88
2024/01/14 06:28:51;;;;;;;;;;;7.10;58.10;;;5.11;61.70;100006.72;12245678;19;20264;-88
2024/01/14 06:32:55;;;;;;;;;;;7.00;58.10;;;5.21;61.77;100043.38;12248981;19;19927;-88
2024/01/14 06:36:58;;;;;;;;;;;6.90;58.00;;;5.31;61.80;100047.25;12248851;19;20269;-88
2024/01/14 06:41:00;;;;;;;;;;;6.90;58.00;;;5.22;61.91;100024.38;12249962;19;19927;-88
2024/01/14 06:45:01;;;;;;;;;;;7.10;58.10;;;5.26;61.96;100034.50;12247888;19;19919;-88
2024/01/14 06:49:03;;;;;;;;;;;6.90;58.10;;;5.31;61.97;100037.72;12244896;19;19923;-87
2024/01/14 06:53:05;;;;;;;;;;;6.90;58.10;;;5.07;61.96;100000.00;12247791;19;19930;-87
2024/01/14 06:57:06;;;;;;;;;;;6.90;58.20;;;5.03;61.69;100001.03;12247337;19;19948;-87
2024/01/14 07:01:07;;;;;;;;;;;6.90;58.10;;;5.26;61.98;100041.41;12249445;19;19922;-87
2024/01/14 07:05:10;;;;;;;;;;;6.90;58.10;;;5.05;61.90;100006.97;12248872;19;19923;-87
2024/01/14 07:09:12;;;;;;;;;;;6.90;58.10;;;5.24;61.91;100038.91;12251971;19;21493;-88
2024/01/14 07:13:14;;;;;;;;;;;6.90;58.10;;;5.25;61.88;100038.00;12251038;19;19918;-87
2024/01/14 07:17:16;;;;;;;;;;;6.90;58.10;;;5.32;61.80;100061.88;12249523;19;19911;-91
2024/01/14 07:21:21;;;;;;;;;;;6.80;58.00;;;5.21;61.81;100031.28;12250469;19;19923;-88
2024/01/14 07:25:22;;;;;;;;;;;6.90;58.10;;;5.20;61.72;100042.53;12251156;19;19939;-88
2024/01/14 07:29:23;;;;;;;;;;;6.90;58.10;;;5.11;61.78;100024.84;12252341;19;19923;-89
2024/01/14 07:33:25;;;;;;;;;;;6.90;58.10;;;5.26;61.81;100052.59;12249394;19;19967;-88
2024/01/14 07:37:30;;;;;;;;;;;6.90;58.10;;;5.30;61.91;100061.94;12247246;19;19939;-88
2024/01/14 07:41:31;;;;;;;;;;;6.90;58.10;;;5.17;61.82;100047.03;12250631;19;19919;-89
2024/01/14 07:45:33;;;;;;;;;;;6.90;58.10;;;5.26;61.81;100056.94;12249038;19;19919;-89
2024/01/14 07:49:34;;;;;;;;;;;6.90;58.50;;;5.30;61.78;100063.69;12251895;19;20353;-86
2024/01/14 07:53:36;;;;;;;;;;;6.90;58.20;;;5.21;62.00;100043.38;12247055;19;19929;-89
2024/01/14 07:57:38;;;;;;;;;;;6.90;58.20;;;5.04;61.78;100016.50;12248832;19;19929;-88
2024/01/14 08:01:40;;;;;;;;;;;6.90;58.20;;;5.33;61.90;100054.03;12251156;19;19971;-88
2024/01/14 08:05:42;;;;;;;;;;;6.90;58.20;;;5.30;61.77;100051.59;12249808;19;19974;-87
2024/01/14 08:09:43;;;;;;;;;;;6.90;58.20;;;5.35;62.01;100061.75;12250224;19;19926;-89
2024/01/14 08:13:45;;;;;;;;;;;6.90;58.10;;;5.32;61.79;100056.72;12250682;19;19919;-87
2024/01/14 08:17:46;;;;;;;;;;;6.90;58.10;;;5.36;61.92;100058.22;12247102;19;19911;-87
2024/01/14 08:21:48;;;;;;;;;;;6.90;58.10;;;5.31;61.93;100042.06;12250112;19;19922;-87
2024/01/14 08:25:49;;;;;;;;;;;6.90;58.10;;;5.28;61.95;100031.84;12248146;19;20398;-90
2024/01/14 08:29:51;;;;;;;;;;;6.90;58.10;;;5.06;61.78;99993.16;12249368;19;19922;-86
2024/01/14 08:33:52;;;;;;;;;;;7.20;58.20;;;5.26;61.97;100037.09;12244974;19;20274;-86
2024/01/14 08:37:54;;;;;;;;;;;7.00;58.20;;;5.33;62.01;100038.50;12243153;19;19934;-87
2024/01/14 08:41:56;;;;;;;;;;;7.00;58.20;;;5.15;61.90;100004.81;12253269;19;19923;-87
2024/01/14 08:45:58;;;;;;;;;;;7.00;58.20;;;5.16;61.96;100003.91;12254354;19;19929;-87
2024/01/14 08:49:59;;;;;;;;;;;7.00;58.10;;;5.45;61.99;100056.97;12250091;19;19923;-87
2024/01/14 08:54:01;;;;;;;;;;;7.00;58.20;;;5.40;62.02;100043.41;12250156;19;20255;-88
2024/01/14 08:58:02;;;;;;;;;;;7.00;58.10;;;5.43;61.98;100044.13;12259223;19;19911;-86
2024/01/14 09:02:05;;;;;;;;;;;7.10;58.20;;;5.33;62.00;100028.16;12259815;19;19956;-87
2024/01/14 09:06:06;;;;;;;;;;;7.10;58.10;;;5.43;61.83;100045.88;12261543;19;19907;-88
2024/01/14 09:10:08;;;;;;;;;;;7.10;58.10;;;5.57;61.86;100068.56;12261601;19;20354;-87
2024/01/14 09:14:09;;;;;;;;;;;7.10;58.10;;;5.56;62.00;100057.31;12258922;19;19915;-87
2024/01/14 09:18:11;;;;;;;;;;;7.20;58.10;;;5.63;61.82;100071.69;12255523;19;20265;-87
2024/01/14 09:22:13;;;;;;;;;;;7.20;58.10;;;5.63;61.83;100068.25;12259349;19;19956;-87
2024/01/14 09:26:14;;;;;;;;;;;7.20;58.10;;;5.56;61.82;100057.31;12260466;19;19919;-87
2024/01/14 09:30:16;;;;;;;;;;;7.20;58.10;;;5.61;61.87;100063.16;12258998;19;20604;-86
2024/01/14 09:34:17;;;;;;;;;;;7.30;58.10;;;5.64;61.92;100068.19;12256186;19;19936;-87
2024/01/14 09:38:19;;;;;;;;;;;7.20;58.00;;;5.71;61.84;100085.13;12254922;19;19907;-87
2024/01/14 09:42:34;;;;;;;;;;;7.30;58.10;;;5.70;61.88;100080.88;12258384;19;19915;-87
2024/01/14 09:46:36;;;;;;;;;;;7.30;58.10;;;5.64;61.83;100064.75;12252964;19;19922;-87
2024/01/14 09:50:37;;;;;;;;;;;7.30;58.00;;;5.71;61.96;100073.94;12252200;19;20372;-89
2024/01/14 09:54:39;;;;;;;;;;;7.40;58.10;;;5.75;62.08;100062.50;12249805;19;19951;-87
2024/01/14 09:58:41;;;;;;;;;;;7.40;58.10;;;5.72;61.89;100055.72;12250514;19;19918;-86
2024/01/14 10:02:42;;;;;;;;;;;7.40;58.10;;;5.69;62.01;100045.50;12255656;19;19911;-86
2024/01/14 10:06:45;;;;;;;;;;;7.40;58.10;;;5.81;62.02;100064.84;12248198;19;19911;-86
2024/01/14 10:10:50;;;;;;;;;;;7.40;58.00;;;5.89;61.90;100064.50;12255858;19;20326;-86
2024/01/14 10:14:59;;;;;;;;;;;7.50;58.10;;;5.86;61.81;100056.84;12254292;19;19929;-87
2024/01/14 10:19:01;;;;;;;;;;;7.50;58.10;;;5.90;61.83;100060.97;12250254;19;19915;-87
2024/01/14 10:23:03;;;;;;;;;;;7.50;58.10;;;5.91;61.93;100054.88;12254660;19;19994;-86
2024/01/14 10:27:05;;;;;;;;;;;7.50;58.00;;;5.90;62.05;100048.84;12253172;19;19925;-87
2024/01/14 10:31:09;;;;;;;;;;;7.50;58.00;;;5.86;61.93;100039.56;12253527;19;19923;-86
2024/01/14 10:35:14;;;;;;;;;;;7.50;58.00;;;5.92;61.92;100028.06;12251886;19;19941;-86
2024/01/14 10:39:16;;;;;;;;;;;7.50;58.10;;;5.95;61.87;100007.22;12255129;19;19987;-88
2024/01/14 10:43:17;;;;;;;;;;;7.60;58.10;;;5.89;61.79;100010.06;12253531;19;19927;-89
2024/01/14 10:47:19;;;;;;;;;;;7.60;58.20;;;5.96;61.95;100006.28;12255125;19;19922;-87
2024/01/14 10:51:21;;;;;;;;;;;7.60;58.10;;;5.93;62.02;99993.47;12244230;19;19918;-87
2024/01/14 10:55:40;;;;;;;;;;;7.60;58.10;;;6.10;62.04;100023.78;12247807;19;20345;-86
2024/01/14 10:59:43;;;;;;;;;;;7.50;58.10;;;6.12;62.03;100027.97;12249443;19;19915;-86
2024/01/14 11:03:45;;;;;;;;;;;7.70;58.20;;;5.88;62.02;99983.31;12250276;19;19923;-88
2024/01/14 11:07:47;;;;;;;;;;;7.70;58.10;;;6.15;61.97;100027.00;12251547;19;19911;-87
2024/01/14 11:11:54;;;;;;;;;;;7.70;58.10;;;6.10;61.89;100003.91;12250712;19;19924;-85
2024/01/14 11:16:07;;;;;;;;;;;7.80;58.10;;;6.17;61.75;100005.25;12246275;19;19915;-85
2024/01/14 11:20:16;;;;;;;;;;;7.70;58.00;;;5.88;61.86;99948.78;12247624;19;19930;-86
2024/01/14 11:24:24;;;;;;;;;;;7.80;58.00;;;6.15;61.69;99993.28;12250181;19;19959;-87
2024/01/14 11:28:26;;;;;;;;;;;7.80;58.00;;;6.12;61.98;99981.31;12242707;19;20362;-88
2024/01/14 11:32:28;;;;;;;;;;;7.80;58.00;;;6.10;61.86;99961.56;12238611;19;20247;-87
2024/01/14 11:36:55;;;;;;;;;;;7.80;58.10;;;6.24;62.01;99979.03;12247399;19;19947;-86
2024/01/14 11:40:56;;;;;;;;;;;7.80;58.00;;;6.22;61.79;99975.69;12242384;19;19911;-87
2024/01/14 11:45:32;;;;;;;;;;;7.80;58.00;;;5.90;62.04;99913.28;12244677;19;19937;-87
2024/01/14 11:49:34;;;;;;;;;;;7.80;58.00;;;6.22;62.02;99945.44;12248222;19;19915;-87
2024/01/14 11:53:35;;;;;;;;;;;7.90;58.00;;;6.27;61.96;99956.41;12242036;19;19914;-87
2024/01/14 11:57:37;;;;;;;;;;;7.90;58.00;;;6.23;62.00;99936.72;12244678;19;19939;-87
2024/01/14 12:01:38;;;;;;;;;;;7.90;58.00;;;6.23;61.72;99922.94;12247759;19;19910;-87
2024/01/14 12:05:40;;;;;;;;;;;7.90;57.90;;;6.18;61.88;99918.81;12217678;19;19922;-87
2024/01/14 12:09:54;;;;;;;;;;;7.90;57.90;;;6.27;61.84;99927.88;12243597;19;19931;-86
2024/01/14 12:13:56;;;;;;;;;;;7.90;57.80;;;6.36;61.87;99936.94;12239659;19;19911;-88
2024/01/14 12:17:59;;;;;;;;;;;7.90;57.80;;;6.19;61.88;99897.16;12244725;19;19922;-87
2024/01/14 12:22:01;;;;;;;;;;;8.10;57.90;;;6.39;61.91;99923.81;12247278;19;20027;-89
2024/01/14 12:26:06;;;;;;;;;;;8.00;57.90;;;6.39;61.82;99910.84;12245447;19;19914;-87
2024/01/14 12:30:08;;;;;;;;;;;8.00;57.90;;;6.42;61.86;99897.72;12256312;19;19917;-87
2024/01/14 12:34:09;;;;;;;;;;;8.00;57.90;;;6.45;61.89;99907.13;12254576;19;19915;-87
2024/01/14 12:38:11;;;;;;;;;;;8.00;57.80;;;6.48;61.95;99910.41;12246408;19;19926;-87
2024/01/14 12:42:12;;;;;;;;;;;8.10;57.80;;;6.46;61.97;99896.69;12250995;19;20334;-88
2024/01/14 12:46:18;;;;;;;;;;;8.10;57.80;;;6.25;61.95;99859.72;12256000;19;20904;-87
2024/01/14 12:50:19;;;;;;;;;;;8.10;57.80;;;6.34;61.75;99868.78;12257080;19;20342;-87
2024/01/14 12:54:21;;;;;;;;;;;8.10;57.80;;;6.47;61.79;99887.13;12250834;19;19911;-87
2024/01/14 12:58:22;;;;;;;;;;;8.10;57.70;;;6.46;61.89;99881.13;12249316;19;20594;-87
2024/01/14 13:02:24;;;;;;;;;;;8.10;57.70;;;6.47;61.95;99868.97;12255368;19;19915;-88
2024/01/14 13:06:25;;;;;;;;;;;8.10;57.70;;;6.50;61.71;99882.63;12255845;19;19907;-89
2024/01/14 13:10:26;;;;;;;;;;;8.10;57.60;;;6.50;61.72;99884.38;12254726;19;19931;-88
2024/01/14 13:14:30;;;;;;;;;;;8.10;57.70;;;6.40;61.76;99863.28;12240750;19;20401;-88
2024/01/14 13:18:31;;;;;;;;;;;8.00;57.60;;;6.15;61.87;99830.00;12252701;19;20277;-87
2024/01/14 13:22:33;;;;;;;;;;;8.00;57.60;;;6.35;61.87;99858.34;12254033;19;19944;-87
2024/01/14 13:26:36;;;;;;;;;;;8.00;57.60;;;6.27;61.88;99839.75;12255614;19;19918;-88
2024/01/14 13:30:37;;;;;;;;;;;8.00;57.60;;;6.24;61.79;99823.47;12255902;19;19952;-88
2024/01/14 13:34:39;;;;;;;;;;;7.90;57.60;;;6.28;61.86;99830.19;12236933;19;19922;-87
2024/01/14 13:38:41;;;;;;;;;;;7.90;57.60;;;6.28;61.75;99831.03;12251474;19;19919;-87
2024/01/14 13:42:43;;;;;;;;;;;8.00;57.70;;;6.35;61.88;99836.75;12253128;19;19927;-88
2024/01/14 13:46:45;;;;;;;;;;;8.00;57.70;;;6.42;61.74;99851.06;12252741;19;19914;-87
2024/01/14 13:50:47;;;;;;;;;;;7.90;57.70;;;6.40;61.81;99845.97;12256691;19;19926;-87
2024/01/14 13:54:48;;;;;;;;;;;8.00;57.70;;;6.45;61.68;99850.88;12249939;19;19928;-87
2024/01/14 13:58:49;;;;;;;;;;;8.00;57.70;;;6.43;61.71;99850.16;12250066;19;19938;-87
2024/01/14 14:02:51;;;;;;;;;;;8.00;57.70;;;6.37;61.87;99824.53;12255256;19;19919;-88
2024/01/14 14:06:53;;;;;;;;;;;8.00;57.70;;;6.46;61.68;99834.44;12253120;19;20309;-87
2024/01/14 14:10:54;;;;;;;;;;;8.00;57.70;;;6.48;61.77;99831.75;12253690;19;20002;-87
2024/01/14 14:14:58;;;;;;;;;;;8.00;57.70;;;6.35;61.81;99814.25;12247594;19;19982;-87
2024/01/14 14:19:00;;;;;;;;;;;8.00;57.70;;;6.23;61.79;99776.00;12249080;19;19922;-87
2024/01/14 14:23:02;;;;;;;;;;;8.00;57.70;;;6.49;61.65;99823.06;12251075;19;19982;-87
2024/01/14 14:27:04;;;;;;;;;;;8.00;57.70;;;6.47;61.82;99801.56;12248785;19;19923;-87
2024/01/14 14:31:06;;;;;;;;;;;8.00;57.70;;;6.45;61.59;99805.97;12252713;19;19929;-89
2024/01/14 14:35:12;;;;;;;;;;;8.00;57.60;;;6.36;61.55;99783.97;12250685;19;19929;-90
2024/01/14 14:39:14;;;;;;;;;;;8.00;57.60;;;6.41;61.80;99781.97;12251281;19;20022;-88
2024/01/14 14:43:15;;;;;;;;;;;8.00;57.60;;;6.21;61.63;99749.31;12253615;19;19914;-91
2024/01/14 14:47:16;;;;;;;;;;;8.00;57.50;;;6.26;61.82;99747.31;12249255;19;19948;-90
2024/01/14 14:51:18;;;;;;;;;;;8.20;57.60;;;6.33;61.77;99755.63;12247434;19;19930;-88
2024/01/14 14:55:21;;;;;;;;;;;8.00;57.50;;;6.16;61.79;99723.66;12249918;19;19927;-89
2024/01/14 14:59:22;;;;;;;;;;;8.00;57.50;;;6.00;61.58;99702.06;12253150;19;19918;-89
2024/01/14 15:03:24;;;;;;;;;;;7.90;57.40;;;6.40;61.82;99769.94;12252184;19;19918;-89
2024/01/14 15:07:27;;;;;;;;;;;8.00;57.50;;;6.41;61.65;99763.81;12250378;19;19927;-89
2024/01/14 15:11:28;;;;;;;;;;;7.90;57.40;;;6.39;61.60;99750.09;12252715;19;19911;-89
2024/01/14 15:15:30;;;;;;;;;;;8.00;57.50;;;6.32;61.70;99738.38;12250063;19;19919;-89
2024/01/14 15:19:31;;;;;;;;;;;8.00;57.50;;;6.46;61.61;99755.81;12248809;19;19925;-89
2024/01/14 15:23:33;;;;;;;;;;;8.20;57.50;;;5.92;61.58;99662.72;12250556;19;19911;-89
2024/01/14 15:27:35;;;;;;;;;;;8.00;57.40;;;6.38;61.70;99727.69;12246362;19;19926;-89
2024/01/14 15:31:37;;;;;;;;;;;7.90;57.40;;;6.30;61.60;99711.72;12250467;19;19923;-89
2024/01/14 15:35:38;;;;;;;;;;;8.00;57.40;;;6.31;61.67;99705.59;12246889;19;19926;-89
2024/01/14 15:39:39;;;;;;;;;;;8.00;57.40;;;6.08;61.59;99663.59;12248957;19;20345;-89
2024/01/14 15:43:41;;;;;;;;;;;7.90;57.40;;;6.40;61.66;99715.47;12247630;19;20130;-89
2024/01/14 15:47:44;;;;;;;;;;;7.90;57.40;;;6.26;61.70;99692.88;12246551;19;20361;-89
2024/01/14 15:51:46;;;;;;;;;;;8.00;57.40;;;6.25;61.58;99690.38;12247347;19;19918;-89
2024/01/14 15:55:47;;;;;;;;;;;7.90;57.40;;;6.29;61.63;99692.72;12245815;19;19994;-89
2024/01/14 15:59:48;;;;;;;;;;;7.90;57.40;;;6.30;61.49;99685.78;12249176;19;19930;-89
2024/01/14 16:03:50;;;;;;;;;;;7.90;57.40;;;6.26;61.58;99679.06;12248181;19;19914;-89
2024/01/14 16:07:52;;;;;;;;;;;7.90;57.40;;;6.26;61.66;99686.84;12245108;19;20330;-89
2024/01/14 16:16:29;;;;;;;;;;;7.90;57.50;;;6.19;61.47;99663.88;12238746;19;20268;-89
2024/01/14 16:20:31;;;;;;;;;;;7.80;57.40;;;6.06;61.64;99670.63;12242563;19;20330;-90
2024/01/14 16:24:33;;;;;;;;;;;7.80;57.40;;;6.24;61.45;99678.31;12243457;19;19919;-89
2024/01/14 16:28:34;;;;;;;;;;;7.80;57.50;;;5.81;61.63;99626.19;12240267;19;19943;-90
2024/01/14 16:32:36;;;;;;;;;;;7.70;57.40;;;5.77;61.53;99625.50;12240799;19;20277;-89
2024/01/14 16:36:37;;;;;;;;;;;7.90;57.50;;;6.02;61.56;99658.72;12241592;19;19919;-89
2024/01/14 16:40:41;;;;;;;;;;;7.70;57.50;;;5.96;61.51;99651.28;12242287;19;19907;-89
2024/01/14 16:44:43;;;;;;;;;;;7.60;57.50;;;5.90;61.52;99643.81;12244153;19;20326;-90
2024/01/14 16:48:47;;;;;;;;;;;7.60;57.60;;;5.73;61.59;99611.88;12238057;19;19939;-89
2024/01/14 16:52:49;;;;;;;;;;;7.60;57.60;;;5.89;61.75;99630.03;12237741;19;19957;-89
2024/01/14 16:56:51;;;;;;;;;;;7.50;57.60;;;5.79;61.56;99610.72;12239506;19;19927;-90
2024/01/14 17:00:53;;;;;;;;;;;7.50;57.60;;;5.99;61.56;99627.81;12239704;19;19943;-90
2024/01/14 17:04:55;;;;;;;;;;;7.50;57.60;;;5.97;61.54;99614.13;12238090;19;20353;-89
2024/01/14 17:08:57;;;;;;;;;;;7.50;57.70;;;5.63;61.62;99558.91;12235288;19;19922;-90
2024/01/14 17:12:59;;;;;;;;;;;7.70;57.80;;;5.89;61.63;99596.38;12242837;19;19918;-89
2024/01/14 17:17:00;;;;;;;;;;;7.50;57.70;;;5.85;61.49;99588.84;12250339;19;19923;-89
2024/01/14 17:21:02;;;;;;;;;;;7.40;57.70;;;5.70;61.60;99559.44;12256079;19;19915;-89
2024/01/14 17:25:03;;;;;;;;;;;7.40;57.70;;;5.70;61.48;99565.44;12252578;19;20045;-89
2024/01/14 17:29:05;;;;;;;;;;;7.40;57.80;;;5.70;61.50;99560.25;12257196;19;20741;-90
2024/01/14 17:33:06;;;;;;;;;;;7.40;57.70;;;5.38;61.54;99499.00;12256594;19;19919;-90
2024/01/14 17:37:08;;;;;;;;;;;7.40;57.80;;;5.90;61.70;99566.09;12253320;19;19915;-89
2024/01/14 17:41:10;;;;;;;;;;;7.40;57.80;;;5.88;61.53;99560.16;12258428;19;20373;-89
2024/01/14 17:45:13;;;;;;;;;;;7.40;57.80;;;5.87;61.46;99564.50;12254904;19;19925;-90
2024/01/14 17:49:15;;;;;;;;;;;7.40;57.80;;;5.92;61.67;99572.88;12255997;19;19919;-89
2024/01/14 17:53:16;;;;;;;;;;;7.40;57.90;;;5.46;61.66;99502.84;12252612;19;19937;-89
2024/01/14 17:57:18;;;;;;;;;;;7.40;57.90;;;5.55;61.53;99501.50;12253295;19;19944;-89
2024/01/14 18:01:22;;;;;;;;;;;7.40;57.80;;;5.89;61.77;99549.72;12255687;19;19915;-90
2024/01/14 18:05:26;;;;;;;;;;;7.40;57.80;;;5.90;61.70;99535.84;12255191;19;20484;-89
2024/01/14 18:09:27;;;;;;;;;;;7.40;57.80;;;5.87;61.49;99533.44;12254882;19;19938;-89
2024/01/14 18:13:29;;;;;;;;;;;7.40;57.80;;;5.72;61.67;99508.34;12252333;19;20330;-89
2024/01/14 18:17:31;;;;;;;;;;;7.30;57.70;;;5.71;61.67;99507.53;12250767;19;19923;-90
2024/01/14 18:21:32;;;;;;;;;;;7.40;57.80;;;5.81;61.60;99525.16;12253100;19;19935;-90
2024/01/14 18:25:35;;;;;;;;;;;7.50;57.80;;;5.70;61.86;99508.47;12251826;19;19955;-89
2024/01/14 18:29:36;;;;;;;;;;;7.40;57.80;;;5.80;61.60;99511.34;12253356;19;19918;-90
2024/01/14 18:33:38;;;;;;;;;;;7.40;57.90;;;5.73;61.49;99503.09;12249696;19;19982;-90
2024/01/14 18:37:39;;;;;;;;;;;7.30;57.80;;;5.72;61.60;99496.22;12251701;19;19919;-90
2024/01/14 18:41:47;;;;;;;;;;;7.30;57.80;;;5.75;61.68;99488.31;12254696;19;19917;-90